Time;durP1;ratioP1;P1;durP2;ratioP2;P2;SDS_P1;SDS_P2;PMS_P1;PMS_P2;Temp;Humidity;BMP_temperature;BMP_pressure;BME280_temperature;BME280_humidity;BME280_pressure;Samples;Min_cycle;Max_cycle;Signal;HPM_P1;HPM_P2
2022/10/07 00:01:15;;;;;;;59.07;55.63;;;12.30;99.90;;;;;;5055536;28;20181;-78
2022/10/07 00:03:41;;;;;;;55.40;52.37;;;12.20;99.90;;;;;;5058222;28;20228;-77
2022/10/07 00:06:17;;;;;;;41.67;38.57;;;12.20;99.90;;;;;;5074286;28;20588;-79
2022/10/07 00:08:48;;;;;;;23.57;22.10;;;12.10;99.90;;;;;;5073607;28;20188;-79
2022/10/07 00:11:16;;;;;;;20.07;19.03;;;12.10;99.90;;;;;;5060651;28;20188;-78
2022/10/07 00:13:43;;;;;;;27.50;25.80;;;12.10;99.90;;;;;;5076906;28;20173;-77
2022/10/07 00:16:12;;;;;;;33.77;30.97;;;12.10;99.90;;;;;;5058700;28;20212;-77
2022/10/07 00:18:40;;;;;;;52.57;49.53;;;12.10;99.90;;;;;;5077932;28;20189;-77
2022/10/07 00:21:08;;;;;;;55.97;52.73;;;12.20;99.90;;;;;;5056493;28;20281;-78
2022/10/07 00:23:35;;;;;;;42.23;39.50;;;12.10;99.90;;;;;;5073434;28;20180;-78
2022/10/07 00:26:02;;;;;;;26.10;24.50;;;12.20;99.90;;;;;;5055634;28;20589;-78
2022/10/07 00:28:28;;;;;;;12.50;11.17;;;12.20;99.90;;;;;;5055297;28;20239;-79
2022/10/07 00:31:04;;;;;;;15.10;13.80;;;12.20;99.90;;;;;;5073094;28;20696;-78
2022/10/07 00:33:31;;;;;;;17.07;16.03;;;12.20;99.90;;;;;;5047273;28;20185;-78
2022/10/07 00:35:58;;;;;;;15.27;14.30;;;12.30;99.90;;;;;;5072144;28;20204;-79
2022/10/07 00:38:24;;;;;;;16.23;14.90;;;12.30;99.90;;;;;;5054766;28;20795;-79
2022/10/07 00:40:50;;;;;;;24.17;22.47;;;12.30;99.90;;;;;;5072672;28;20181;-79
2022/10/07 00:43:28;;;;;;;47.57;44.87;;;12.30;99.90;;;;;;5072574;28;20564;-79
2022/10/07 00:45:59;;;;;;;62.87;59.37;;;12.40;99.90;;;;;;5054461;28;20178;-78
2022/10/07 00:48:31;;;;;;;83.00;78.33;;;12.40;99.90;;;;;;5054371;28;20247;-79
2022/10/07 00:50:59;;;;;;;89.30;84.00;;;12.40;99.90;;;;;;5054101;28;20181;-79
2022/10/07 00:53:28;;;;;;;97.67;92.50;;;12.40;99.90;;;;;;5075029;28;20174;-78
2022/10/07 00:56:00;;;;;;;84.13;79.50;;;12.50;99.90;;;;;;5064134;28;20181;-80
2022/10/07 00:58:29;;;;;;;89.13;84.17;;;12.50;99.90;;;;;;5063803;28;20216;-79
2022/10/07 01:00:56;;;;;;;88.40;83.47;;;12.50;99.90;;;;;;5059231;28;20173;-79
2022/10/07 01:03:23;;;;;;;88.13;83.57;;;12.50;99.90;;;;;;5060712;28;20295;-79
2022/10/07 01:05:49;;;;;;;89.17;84.47;;;12.50;99.90;;;;;;5061188;28;20174;-79
2022/10/07 01:08:17;;;;;;;81.40;76.63;;;12.50;99.90;;;;;;5059172;28;20232;-80
2022/10/07 01:11:00;;;;;;;87.03;82.00;;;12.60;99.90;;;;;;5060840;28;20244;-78
2022/10/07 01:13:41;;;;;;;55.77;52.67;;;12.60;99.90;;;;;;5059360;28;20617;-79
2022/10/07 01:16:39;;;;;;;52.77;49.73;;;12.60;99.90;;;;;;5058453;28;20228;-79
2022/10/07 01:19:31;;;;;;;46.43;43.73;;;12.60;99.90;;;;;;5058959;28;20200;-79
2022/10/07 01:22:00;;;;;;;41.07;38.47;;;12.60;99.90;;;;;;5057635;28;20178;-79
2022/10/07 01:24:51;;;;;;;41.27;38.70;;;12.60;99.90;;;;;;5063067;28;20246;-78
2022/10/07 01:27:19;;;;;;;33.27;31.23;;;12.60;99.90;;;;;;5041887;28;20264;-79
2022/10/07 01:29:58;;;;;;;44.93;42.50;;;12.60;99.90;;;;;;5049800;28;20752;-79
2022/10/07 01:32:35;;;;;;;59.83;56.27;;;12.60;99.90;;;;;;5058889;28;20284;-79
2022/10/07 01:35:05;;;;;;;62.93;59.20;;;12.50;99.90;;;;;;5059632;28;20195;-79
2022/10/07 01:37:36;;;;;;;77.57;72.83;;;12.50;99.90;;;;;;5058298;28;20243;-79
2022/10/07 01:40:12;;;;;;;87.63;83.03;;;12.50;99.90;;;;;;5076589;28;21090;-79
2022/10/07 01:42:39;;;;;;;95.53;89.87;;;12.50;99.90;;;;;;5063317;28;20182;-79
2022/10/07 01:45:08;;;;;;;96.77;91.53;;;12.50;99.90;;;;;;5058619;28;20239;-79
2022/10/07 01:47:34;;;;;;;88.30;83.33;;;12.60;99.90;;;;;;5058210;28;20331;-79
2022/10/07 01:50:00;;;;;;;80.90;76.67;;;12.60;99.90;;;;;;5056858;28;20662;-78
2022/10/07 01:52:41;;;;;;;63.60;59.97;;;12.60;99.90;;;;;;5058602;28;20184;-79
2022/10/07 01:55:10;;;;;;;43.83;41.53;;;12.60;99.90;;;;;;5058367;28;20170;-78
2022/10/07 01:57:59;;;;;;;51.23;48.07;;;12.60;99.90;;;;;;5075522;28;20694;-77
2022/10/07 02:00:25;;;;;;;41.03;38.87;;;12.70;99.90;;;;;;5044717;28;20406;-78
2022/10/07 02:03:33;;;;;;;34.83;32.83;;;12.70;99.90;;;;;;5075756;28;20185;-78
2022/10/07 02:06:07;;;;;;;28.60;26.53;;;12.70;99.90;;;;;;5057626;28;20259;-80
2022/10/07 02:08:32;;;;;;;29.33;27.33;;;12.70;99.90;;;;;;5069128;28;20245;-78
2022/10/07 02:11:15;;;;;;;31.67;29.87;;;12.70;99.90;;;;;;5067020;28;20192;-77
2022/10/07 02:13:54;;;;;;;29.50;27.63;;;12.70;99.90;;;;;;5080487;28;20600;-78
2022/10/07 02:18:57;;;;;;;21.67;20.47;;;12.70;99.90;;;;;;5041502;28;20297;-79
2022/10/07 02:21:28;;;;;;;19.07;17.80;;;12.70;99.90;;;;;;5025870;28;20186;-79
2022/10/07 02:23:56;;;;;;;15.60;14.63;;;12.80;99.90;;;;;;5044098;28;20262;-79
2022/10/07 02:26:26;;;;;;;15.53;13.93;;;12.80;99.90;;;;;;5026437;28;20556;-78
2022/10/07 02:28:55;;;;;;;12.50;11.70;;;12.80;99.90;;;;;;5044659;28;20183;-78
2022/10/07 02:31:29;;;;;;;13.53;12.57;;;12.80;99.90;;;;;;5026002;28;20175;-78
2022/10/07 02:33:57;;;;;;;13.67;12.73;;;12.80;99.90;;;;;;5026961;28;20191;-79
2022/10/07 02:36:33;;;;;;;12.60;11.87;;;12.80;99.90;;;;;;5042381;28;20211;-79
2022/10/07 02:39:00;;;;;;;12.63;11.83;;;12.80;99.90;;;;;;5057245;28;20174;-79
2022/10/07 02:41:55;;;;;;;12.20;11.30;;;12.80;99.90;;;;;;5034893;28;20175;-78
2022/10/07 02:44:24;;;;;;;12.70;11.67;;;12.80;99.90;;;;;;5009778;28;20187;-78
2022/10/07 02:47:16;;;;;;;13.10;11.83;;;12.80;99.90;;;;;;5009406;28;20199;-78
2022/10/07 02:49:48;;;;;;;11.47;10.43;;;12.90;99.90;;;;;;5027293;28;20214;-78
2022/10/07 02:52:17;;;;;;;12.53;11.53;;;12.90;99.90;;;;;;5028910;28;20175;-79
2022/10/07 02:54:56;;;;;;;13.40;12.37;;;12.90;99.90;;;;;;5029074;28;20175;-79
2022/10/07 02:57:25;;;;;;;13.23;12.37;;;12.90;99.90;;;;;;5027901;28;20226;-79
2022/10/07 02:59:53;;;;;;;12.73;12.03;;;12.90;99.90;;;;;;5027186;28;20651;-79
2022/10/07 03:02:38;;;;;;;14.77;13.33;;;12.90;99.90;;;;;;5026751;28;20179;-79
2022/10/07 03:05:06;;;;;;;15.80;14.63;;;12.90;99.90;;;;;;5044634;28;20229;-79
2022/10/07 03:07:34;;;;;;;13.43;12.37;;;12.90;99.90;;;;;;5026413;28;20210;-78
2022/10/07 03:10:00;;;;;;;12.73;11.57;;;12.90;99.90;;;;;;5048018;28;20187;-78
2022/10/07 03:12:27;;;;;;;13.80;12.83;;;12.90;99.90;;;;;;5035328;28;20225;-78
2022/10/07 03:14:53;;;;;;;15.40;14.17;;;12.90;99.90;;;;;;5017454;28;20187;-78
2022/10/07 03:17:19;;;;;;;13.60;12.53;;;12.90;99.90;;;;;;5018424;28;20219;-78
2022/10/07 03:19:45;;;;;;;14.93;13.63;;;12.90;99.90;;;;;;5020910;28;20186;-78
2022/10/07 03:22:11;;;;;;;15.83;14.73;;;12.80;99.90;;;;;;5038699;28;20183;-77
2022/10/07 03:24:37;;;;;;;18.37;16.80;;;12.80;99.90;;;;;;5038358;28;20682;-78
2022/10/07 03:27:06;;;;;;;17.70;15.90;;;12.80;99.90;;;;;;5036718;28;20199;-78
2022/10/07 03:29:35;;;;;;;17.97;16.63;;;12.80;99.90;;;;;;5022126;28;20274;-78
2022/10/07 03:32:01;;;;;;;17.23;15.53;;;12.80;99.90;;;;;;5040016;28;20189;-78
2022/10/07 03:34:27;;;;;;;16.57;15.37;;;12.80;99.90;;;;;;5022941;28;20257;-78
2022/10/07 03:36:54;;;;;;;16.67;15.47;;;12.80;99.90;;;;;;5021903;28;20642;-78
2022/10/07 03:39:20;;;;;;;15.77;14.63;;;12.80;99.90;;;;;;5039564;28;20179;-78
2022/10/07 03:41:47;;;;;;;13.63;12.43;;;12.80;99.90;;;;;;5020887;28;20525;-77
2022/10/07 03:44:13;;;;;;;12.50;11.40;;;12.80;99.90;;;;;;5021861;28;20182;-78
2022/10/07 03:46:40;;;;;;;15.60;14.20;;;12.80;99.90;;;;;;5044397;28;20222;-78
2022/10/07 03:49:07;;;;;;;17.03;15.80;;;12.80;99.90;;;;;;5044161;28;20179;-78
2022/10/07 03:51:34;;;;;;;17.77;16.33;;;12.90;99.90;;;;;;5028903;28;20186;-78
2022/10/07 03:54:00;;;;;;;15.40;14.23;;;12.80;99.90;;;;;;5031365;28;20179;-79
2022/10/07 03:56:26;;;;;;;16.40;15.07;;;12.80;99.90;;;;;;5028710;28;20203;-79
2022/10/07 03:58:52;;;;;;;14.60;13.37;;;12.80;99.90;;;;;;5025269;28;20266;-79
2022/10/07 04:01:18;;;;;;;16.43;15.13;;;12.80;99.90;;;;;;5045620;28;20197;-79
2022/10/07 04:03:45;;;;;;;18.37;17.23;;;12.80;99.90;;;;;;5055185;28;20193;-78
2022/10/07 04:06:10;;;;;;;22.13;20.60;;;12.80;99.90;;;;;;5045117;28;20201;-79
2022/10/07 04:08:36;;;;;;;18.43;16.80;;;12.80;99.90;;;;;;5045748;28;20586;-78
2022/10/07 04:11:03;;;;;;;17.97;16.63;;;12.80;99.90;;;;;;5046529;28;20218;-79
2022/10/07 04:13:29;;;;;;;20.33;18.53;;;12.80;99.90;;;;;;5051751;28;20246;-78
2022/10/07 04:15:55;;;;;;;18.63;17.37;;;12.80;99.90;;;;;;5042988;28;20200;-78
2022/10/07 04:18:21;;;;;;;21.73;16.60;;;12.90;99.90;;;;;;5064865;28;20227;-79
2022/10/07 04:20:47;;;;;;;17.47;16.17;;;12.80;99.90;;;;;;5040471;28;20171;-79
2022/10/07 04:23:14;;;;;;;14.37;13.17;;;12.80;99.90;;;;;;5044667;28;20174;-79
2022/10/07 04:25:44;;;;;;;14.03;12.87;;;12.90;99.90;;;;;;5025006;28;20270;-79
2022/10/07 04:28:23;;;;;;;16.30;15.10;;;12.90;99.90;;;;;;5015495;28;20605;-82
2022/10/07 04:30:50;;;;;;;18.50;17.30;;;12.80;99.90;;;;;;5014833;28;20187;-78
2022/10/07 04:33:17;;;;;;;20.43;19.13;;;12.80;99.90;;;;;;5029566;28;20183;-79
2022/10/07 04:35:43;;;;;;;22.87;21.37;;;12.80;99.90;;;;;;5037102;28;20189;-79
2022/10/07 04:38:12;;;;;;;23.30;21.90;;;12.80;99.90;;;;;;5043379;28;20237;-79
2022/10/07 04:40:42;;;;;;;25.70;23.90;;;12.80;99.90;;;;;;5026937;28;21396;-78
2022/10/07 04:43:18;;;;;;;29.67;27.37;;;12.80;99.90;;;;;;5021702;28;20186;-78
2022/10/07 04:45:46;;;;;;;31.03;28.03;;;12.80;99.90;;;;;;5037954;28;20181;-80
2022/10/07 04:48:16;;;;;;;37.53;35.53;;;12.80;99.90;;;;;;5042236;28;20474;-79
2022/10/07 04:50:42;;;;;;;46.67;43.67;;;12.80;99.90;;;;;;5024730;28;20198;-78
2022/10/07 04:53:09;;;;;;;50.87;47.67;;;12.80;99.90;;;;;;5039961;28;20206;-78
2022/10/07 04:55:41;;;;;;;51.33;48.47;;;12.80;99.90;;;;;;5041055;28;20198;-78
2022/10/07 04:58:07;;;;;;;69.17;65.10;;;12.80;99.90;;;;;;5044931;28;20274;-79
2022/10/07 05:00:34;;;;;;;66.90;62.87;;;12.80;99.90;;;;;;5032977;28;20186;-79
2022/10/07 05:03:00;;;;;;;63.40;59.53;;;12.70;99.90;;;;;;5023249;28;20186;-78
2022/10/07 05:05:27;;;;;;;60.57;57.37;;;12.70;99.90;;;;;;5040856;28;20167;-79
2022/10/07 05:07:53;;;;;;;76.70;72.50;;;12.70;99.90;;;;;;5023327;28;20217;-77
2022/10/07 05:10:20;;;;;;;95.77;90.73;;;12.70;99.90;;;;;;5038511;28;20249;-78
2022/10/07 05:12:46;;;;;;;93.93;88.67;;;12.70;99.90;;;;;;5040023;28;20187;-78
2022/10/07 05:15:12;;;;;;;90.20;84.93;;;12.60;99.90;;;;;;5037383;28;20199;-78
2022/10/07 05:17:41;;;;;;;102.67;97.23;;;12.70;99.90;;;;;;5022937;28;20245;-78
2022/10/07 05:20:08;;;;;;;110.43;104.17;;;12.70;99.90;;;;;;5042181;28;20179;-78
2022/10/07 05:22:35;;;;;;;119.07;112.53;;;12.60;99.90;;;;;;5022848;28;20272;-74
2022/10/07 05:25:01;;;;;;;130.17;122.77;;;12.60;99.90;;;;;;5012378;28;20679;-74
2022/10/07 05:27:27;;;;;;;114.57;108.57;;;12.60;99.90;;;;;;5030031;28;20207;-74
2022/10/07 05:29:52;;;;;;;109.73;103.77;;;12.60;99.90;;;;;;5012603;28;20193;-74
2022/10/07 05:32:18;;;;;;;124.00;116.80;;;12.60;99.90;;;;;;5029823;28;20278;-74
2022/10/07 05:34:44;;;;;;;128.90;121.57;;;12.60;99.90;;;;;;5028086;28;20186;-73
2022/10/07 05:37:11;;;;;;;124.50;117.90;;;12.60;99.90;;;;;;5011463;28;20306;-74
2022/10/07 05:39:37;;;;;;;118.37;111.63;;;12.60;99.90;;;;;;5032936;28;20187;-74
2022/10/07 05:42:04;;;;;;;119.37;112.80;;;12.60;99.90;;;;;;5032396;28;20244;-74
2022/10/07 05:44:31;;;;;;;110.83;104.87;;;12.60;99.90;;;;;;5033117;28;20180;-74
2022/10/07 05:46:57;;;;;;;92.87;87.43;;;12.60;99.90;;;;;;5010971;28;20199;-73
2022/10/07 05:49:23;;;;;;;92.50;86.93;;;12.60;99.90;;;;;;5013713;28;20176;-74
2022/10/07 05:51:50;;;;;;;99.20;93.97;;;12.70;99.90;;;;;;5011592;28;20229;-74
2022/10/07 05:54:17;;;;;;;98.77;93.43;;;12.70;99.90;;;;;;5033641;28;20183;-73
2022/10/07 05:56:42;;;;;;;114.73;108.67;;;12.70;99.90;;;;;;5033194;28;20714;-74
2022/10/07 05:59:09;;;;;;;131.90;124.60;;;12.70;99.90;;;;;;5033237;28;20183;-74
2022/10/07 06:01:35;;;;;;;122.37;115.53;;;12.80;99.90;;;;;;5032926;28;20175;-74
2022/10/07 06:04:02;;;;;;;126.03;118.57;;;12.80;99.90;;;;;;5033317;28;20215;-73
2022/10/07 06:06:30;;;;;;;131.73;124.57;;;12.90;99.90;;;;;;5032550;28;20210;-74
2022/10/07 06:13:06;;;;;;;90.53;85.53;;;13.00;99.90;;;;;;5032605;28;20316;-74
2022/10/07 06:14:29;;;;;;;17.13;16.03;;;13.20;99.90;;;;;;5032507;28;20183;-73
2022/10/07 06:16:55;;;;;;;11.90;10.60;;;13.30;99.90;;;;;;5032131;28;20221;-73
2022/10/07 06:19:21;;;;;;;11.87;10.97;;;13.40;99.90;;;;;;5032939;28;20183;-73
2022/10/07 06:21:47;;;;;;;11.87;10.83;;;13.40;99.90;;;;;;5032219;28;20317;-73
2022/10/07 06:24:13;;;;;;;12.50;11.50;;;13.50;99.90;;;;;;5033078;28;20321;-76
2022/10/07 06:26:41;;;;;;;17.83;16.43;;;13.50;99.90;;;;;;5032875;28;20685;-74
2022/10/07 06:29:07;;;;;;;63.20;59.57;;;13.60;99.90;;;;;;5024237;28;20233;-75
2022/10/07 06:31:34;;;;;;;93.67;88.27;;;13.60;99.90;;;;;;5053436;28;20187;-74
2022/10/07 06:34:00;;;;;;;80.10;75.73;;;13.60;99.90;;;;;;5033766;28;20194;-74
2022/10/07 06:36:26;;;;;;;62.87;59.33;;;13.80;99.90;;;;;;5014818;28;20210;-74
2022/10/07 06:38:54;;;;;;;34.73;32.33;;;13.90;99.90;;;;;;5032224;28;20210;-74
2022/10/07 06:41:21;;;;;;;35.70;33.67;;;14.00;99.90;;;;;;5014845;28;20619;-74
2022/10/07 06:43:48;;;;;;;77.70;73.17;;;14.10;99.90;;;;;;5014371;28;20211;-74
2022/10/07 06:46:16;;;;;;;52.27;49.03;;;14.30;99.90;;;;;;5014804;28;20191;-74
2022/10/07 06:48:44;;;;;;;15.60;14.33;;;14.40;99.90;;;;;;5044693;28;20273;-75
2022/10/07 06:51:14;;;;;;;6.87;6.37;;;14.50;99.90;;;;;;5030725;28;20191;-75
2022/10/07 06:53:40;;;;;;;17.77;13.17;;;14.60;99.90;;;;;;5032073;28;20194;-74
2022/10/07 06:56:07;;;;;;;14.70;13.77;;;14.80;99.90;;;;;;5013372;28;20241;-74
2022/10/07 06:58:33;;;;;;;13.20;12.23;;;14.90;99.90;;;;;;5030639;28;20206;-73
2022/10/07 07:00:59;;;;;;;10.37;9.40;;;15.10;99.90;;;;;;5031939;28;20182;-75
2022/10/07 07:03:26;;;;;;;11.80;7.33;;;15.10;99.90;;;;;;5016015;28;20266;-77
2022/10/07 07:05:53;;;;;;;10.77;9.07;;;15.20;99.90;;;;;;5016632;28;20244;-77
2022/10/07 07:08:20;;;;;;;9.80;7.70;;;15.30;99.90;;;;;;5042673;28;20202;-77
2022/10/07 07:10:47;;;;;;;7.80;7.10;;;15.50;99.90;;;;;;5018610;28;20563;-78
2022/10/07 07:13:14;;;;;;;9.80;7.77;;;15.70;99.90;;;;;;5019946;28;20181;-78
2022/10/07 07:15:40;;;;;;;8.20;6.03;;;16.00;99.90;;;;;;5017222;28;20188;-77
2022/10/07 07:18:08;;;;;;;21.20;19.70;;;16.20;99.90;;;;;;5016883;28;20249;-78
2022/10/07 07:20:36;;;;;;;28.83;26.87;;;16.30;99.90;;;;;;5040952;28;20183;-74
2022/10/07 07:23:07;;;;;;;28.80;26.87;;;16.50;99.90;;;;;;5017824;28;20266;-74
2022/10/07 07:25:38;;;;;;;24.03;22.20;;;16.80;99.90;;;;;;5035197;28;20179;-74
2022/10/07 07:28:05;;;;;;;30.90;29.10;;;17.40;99.90;;;;;;5032234;28;20202;-74
2022/10/07 07:30:33;;;;;;;24.50;22.93;;;18.00;99.90;;;;;;5014366;28;20183;-74
2022/10/07 07:32:59;;;;;;;10.40;9.60;;;18.30;99.90;;;;;;5015047;28;20187;-74
2022/10/07 07:35:27;;;;;;;11.83;10.67;;;18.50;99.90;;;;;;5032090;28;20535;-74
2022/10/07 07:37:54;;;;;;;11.67;10.70;;;18.20;99.90;;;;;;5031312;28;20273;-74
2022/10/07 07:40:20;;;;;;;17.43;15.90;;;18.00;99.90;;;;;;5014525;28;20692;-73
2022/10/07 07:42:47;;;;;;;46.87;44.33;;;18.20;99.90;;;;;;5014057;28;20179;-75
2022/10/07 07:45:13;;;;;;;36.53;34.50;;;18.20;99.90;;;;;;5031729;28;20657;-74
2022/10/07 07:47:40;;;;;;;29.90;28.00;;;18.00;99.90;;;;;;5031359;28;20309;-75
2022/10/07 07:50:07;;;;;;;33.43;31.27;;;18.00;99.90;;;;;;5014196;28;20175;-75
2022/10/07 07:52:33;;;;;;;37.80;35.70;;;18.30;99.90;;;;;;5013456;28;20179;-74
2022/10/07 07:55:01;;;;;;;13.57;12.40;;;18.70;99.90;;;;;;5032682;28;20193;-75
2022/10/07 07:57:28;;;;;;;12.83;11.80;;;19.20;99.90;;;;;;5013330;28;20215;-75
2022/10/07 07:59:58;;;;;;;28.70;26.83;;;19.60;99.90;;;;;;5031449;28;20185;-75
2022/10/07 08:02:23;;;;;;;61.80;58.70;;;19.70;99.90;;;;;;5030810;28;20179;-75
2022/10/07 08:04:49;;;;;;;51.13;48.30;;;20.00;99.90;;;;;;5031455;28;20210;-75
2022/10/07 08:07:16;;;;;;;42.80;40.13;;;20.10;99.90;;;;;;5037522;28;20297;-74
2022/10/07 08:09:42;;;;;;;37.03;34.93;;;20.20;99.90;;;;;;5038432;28;20179;-75
2022/10/07 08:12:08;;;;;;;20.27;18.97;;;20.40;99.90;;;;;;5011491;28;20191;-72
2022/10/07 08:14:35;;;;;;;25.73;24.13;;;20.60;99.90;;;;;;5017297;28;20182;-73
2022/10/07 08:17:01;;;;;;;22.35;21.00;;;21.00;99.90;;;;;;5030222;28;20580;-73
2022/10/07 08:19:28;;;;;;;14.60;13.60;;;21.30;99.90;;;;;;5066525;22;20240;-75
2022/10/07 08:21:55;;;;;;;17.00;16.00;;;21.50;99.90;;;;;;5032520;28;20194;-75
2022/10/07 08:24:23;;;;;;;16.42;15.23;;;21.50;99.90;;;;;;5050296;28;20655;-74
2022/10/07 08:26:50;;;;;;;19.67;18.38;;;21.60;99.90;;;;;;5050144;28;20186;-74
2022/10/07 08:29:16;;;;;;;13.70;12.35;;;21.90;99.90;;;;;;5063168;28;20194;-75
2022/10/07 08:31:42;;;;;;;15.13;14.10;;;22.20;99.90;;;;;;5070191;28;20181;-75
2022/10/07 08:34:09;;;;;;;29.73;28.00;;;22.20;99.90;;;;;;5070829;28;20737;-74
2022/10/07 08:36:35;;;;;;;48.33;45.70;;;22.20;99.90;;;;;;5052944;28;20748;-74
2022/10/07 08:39:03;;;;;;;45.20;42.60;;;22.20;99.90;;;;;;5069582;28;20198;-74
2022/10/07 08:41:32;;;;;;;44.25;41.13;;;21.90;99.90;;;;;;5070471;28;20181;-74
2022/10/07 08:44:26;;;;;;;51.08;48.50;;;22.10;99.90;;;;;;5071203;28;20295;-75
2022/10/07 08:46:56;;;;;;;56.88;53.70;;;22.40;99.90;;;;;;5069815;28;20615;-75
2022/10/07 08:49:31;;;;;;;49.60;46.97;;;22.60;99.90;;;;;;5069903;28;20227;-74
2022/10/07 08:52:23;;;;;;;41.45;39.00;;;22.80;99.90;;;;;;5052349;28;20185;-74
2022/10/07 08:54:49;;;;;;;34.58;32.53;;;22.90;99.90;;;;;;5069801;28;20185;-74
2022/10/07 08:57:33;;;;;;;43.88;41.40;;;23.10;99.90;;;;;;5051626;28;20243;-75
2022/10/07 09:00:02;;;;;;;22.42;20.67;;;22.80;99.90;;;;;;5069994;28;20201;-74
2022/10/07 09:02:42;;;;;;;31.05;29.17;;;23.10;99.90;;;;;;5071977;28;20230;-74
2022/10/07 09:05:23;;;;;;;18.90;17.75;;;23.00;99.90;;;;;;5070214;28;20182;-75
2022/10/07 09:07:55;;;;;;;25.63;23.40;;;23.20;99.90;;;;;;5069140;28;20185;-74
2022/10/07 09:10:37;;;;;;;22.67;21.42;;;23.00;99.90;;;;;;5069636;28;20533;-74
2022/10/07 09:13:11;;;;;;;26.48;24.75;;;23.30;99.90;;;;;;5070484;28;20185;-74
2022/10/07 09:16:05;;;;;;;29.23;27.48;;;23.50;99.90;;;;;;5073958;28;20213;-74
2022/10/07 09:18:44;;;;;;;35.28;33.25;;;23.80;99.90;;;;;;5073764;28;20217;-75
2022/10/07 09:21:47;;;;;;;18.25;17.23;;;24.00;99.90;;;;;;5073643;28;20189;-75
2022/10/07 09:24:25;;;;;;;13.88;12.80;;;24.30;99.90;;;;;;5052396;28;20224;-73
2022/10/07 09:26:54;;;;;;;11.43;10.52;;;24.30;99.90;;;;;;5073372;28;20208;-73
2022/10/07 09:29:22;;;;;;;6.20;5.80;;;24.70;99.90;;;;;;5073310;28;20201;-75
2022/10/07 09:31:49;;;;;;;8.23;5.35;;;25.00;99.90;;;;;;5076448;28;20189;-73
2022/10/07 09:34:24;;;;;;;5.90;5.50;;;25.40;99.90;;;;;;5075448;28;20174;-74
2022/10/07 09:37:26;;;;;;;6.18;5.25;;;25.90;99.90;;;;;;5073106;28;20201;-73
2022/10/07 09:40:16;;;;;;;8.65;4.75;;;25.80;99.90;;;;;;5024293;28;20254;-73
2022/10/07 09:42:44;;;;;;;7.10;5.72;;;25.70;99.90;;;;;;5073303;28;20182;-73
2022/10/07 09:45:31;;;;;;;8.15;5.53;;;25.80;99.90;;;;;;5055816;28;20268;-74
2022/10/07 09:48:06;;;;;;;8.55;5.88;;;25.70;99.90;;;;;;5072724;28;20185;-74
2022/10/07 09:50:39;;;;;;;6.57;5.97;;;25.90;99.90;;;;;;5073582;28;20237;-73
2022/10/07 09:53:32;;;;;;;7.18;6.43;;;25.90;99.90;;;;;;5058251;28;20210;-73
2022/10/07 09:55:58;;;;;;;7.45;6.85;;;25.10;99.90;;;;;;5048315;28;20249;-73
2022/10/07 09:58:26;;;;;;;8.38;7.35;;;25.20;99.90;;;;;;5062410;28;20832;-73
2022/10/07 10:00:55;;;;;;;7.22;6.50;;;25.40;99.90;;;;;;5070972;28;20181;-73
2022/10/07 10:03:28;;;;;;;9.13;5.25;;;25.70;99.90;;;;;;5071756;28;20268;-75
2022/10/07 10:05:57;;;;;;;6.60;6.00;;;26.00;99.90;;;;;;5055255;28;20187;-75
2022/10/07 10:08:38;;;;;;;7.40;4.80;;;25.90;99.90;;;;;;5053732;28;20617;-75
2022/10/07 10:11:24;;;;;;;6.07;5.07;;;25.90;99.90;;;;;;5054139;28;20564;-76
2022/10/07 10:13:50;;;;;;;6.55;5.20;;;26.30;99.90;;;;;;5076199;28;20239;-75
2022/10/07 10:16:39;;;;;;;6.57;4.53;;;26.00;99.90;;;;;;5073758;28;20181;-76
2022/10/07 10:19:20;;;;;;;5.68;5.18;;;26.10;99.90;;;;;;5054556;28;20236;-75
2022/10/07 10:21:55;;;;;;;8.43;4.63;;;26.50;99.90;;;;;;5071493;28;20236;-75
2022/10/07 10:27:25;;;;;;;6.25;5.85;;;27.50;99.90;;;;;;5030342;28;20217;-76
2022/10/07 10:30:04;;;;;;;7.95;7.15;;;28.80;98.10;;;;;;5072469;28;20743;-76
2022/10/07 10:33:15;;;;;;;9.98;6.05;;;28.50;96.90;;;;;;5054552;28;20699;-76
2022/10/07 10:36:13;;;;;;;6.57;6.18;;;28.10;97.30;;;;;;5041176;28;20189;-76
2022/10/07 10:39:11;;;;;;;8.02;7.35;;;28.10;97.00;;;;;;5053901;28;20228;-76
2022/10/07 10:41:59;;;;;;;7.28;6.78;;;27.50;97.30;;;;;;5063823;28;20185;-76
2022/10/07 10:44:37;;;;;;;11.70;6.90;;;27.00;98.20;;;;;;5072238;28;20259;-75
2022/10/07 10:47:06;;;;;;;9.73;8.75;;;27.20;97.90;;;;;;5054137;28;20527;-74
2022/10/07 10:49:51;;;;;;;6.68;6.07;;;26.70;97.90;;;;;;5072155;28;20236;-74
2022/10/07 10:52:54;;;;;;;8.07;7.47;;;27.00;98.10;;;;;;5054273;28;20188;-75
2022/10/07 10:55:29;;;;;;;8.45;6.47;;;27.50;97.70;;;;;;5054993;28;20584;-75
2022/10/07 10:58:14;;;;;;;9.02;8.10;;;28.10;96.20;;;;;;5072670;28;20300;-75
2022/10/07 11:01:09;;;;;;;10.57;9.80;;;28.50;95.60;;;;;;5071980;28;20182;-75
2022/10/07 11:03:47;;;;;;;12.05;8.68;;;28.30;95.70;;;;;;5071431;28;20193;-75
2022/10/07 11:06:15;;;;;;;8.40;7.70;;;28.20;95.00;;;;;;5073235;28;20169;-76
2022/10/07 11:08:42;;;;;;;9.57;8.00;;;28.10;94.60;;;;;;5053611;28;20719;-75
2022/10/07 11:11:20;;;;;;;10.40;9.40;;;27.60;94.20;;;;;;5071700;28;20276;-75
2022/10/07 11:13:58;;;;;;;9.60;8.88;;;28.10;94.10;;;;;;5053019;28;20262;-75
2022/10/07 11:16:36;;;;;;;9.63;8.73;;;27.80;94.20;;;;;;5051612;28;20232;-75
2022/10/07 11:19:18;;;;;;;13.68;11.93;;;27.10;95.30;;;;;;5051055;28;20206;-75
2022/10/07 11:21:49;;;;;;;14.00;12.88;;;26.80;94.60;;;;;;5054914;28;20643;-74
2022/10/07 11:24:39;;;;;;;9.32;8.48;;;25.60;95.80;;;;;;5064428;28;20185;-77
2022/10/07 11:27:29;;;;;;;8.00;7.25;;;25.20;97.10;;;;;;5056019;28;20235;-74
2022/10/07 11:29:59;;;;;;;8.75;6.22;;;25.10;98.00;;;;;;5071904;28;20204;-76
2022/10/07 11:32:37;;;;;;;6.53;6.00;;;25.90;97.40;;;;;;5071627;28;20716;-75
2022/10/07 11:35:14;;;;;;;7.55;6.65;;;27.00;96.00;;;;;;5071545;28;20199;-74
2022/10/07 11:38:09;;;;;;;14.13;6.47;;;27.20;96.00;;;;;;5073437;28;20303;-75
2022/10/07 11:40:43;;;;;;;9.40;6.65;;;27.50;96.60;;;;;;5049955;28;20247;-75
2022/10/07 11:43:19;;;;;;;12.57;8.02;;;28.10;95.30;;;;;;5050173;28;20551;-75
2022/10/07 11:45:52;;;;;;;12.73;11.32;;;28.20;94.60;;;;;;5062644;28;20709;-76
2022/10/07 11:48:22;;;;;;;10.98;10.00;;;28.20;94.10;;;;;;5069789;28;20202;-75
2022/10/07 11:50:54;;;;;;;10.95;8.75;;;28.20;93.60;;;;;;5072705;28;20181;-76
2022/10/07 11:53:24;;;;;;;12.57;10.35;;;28.00;93.90;;;;;;5055046;28;20181;-75
2022/10/07 11:55:59;;;;;;;11.35;10.40;;;27.30;94.70;;;;;;5053364;28;20205;-74
2022/10/07 11:58:36;;;;;;;13.10;12.00;;;27.30;95.70;;;;;;5070943;28;20540;-76
2022/10/07 12:01:24;;;;;;;12.32;11.23;;;27.00;96.00;;;;;;5053216;28;20181;-74
2022/10/07 12:03:51;;;;;;;14.65;11.82;;;27.40;95.20;;;;;;5070731;28;20612;-75
2022/10/07 12:06:17;;;;;;;10.93;9.73;;;27.70;94.70;;;;;;5070590;28;20176;-75
2022/10/07 12:08:43;;;;;;;10.48;9.68;;;28.50;94.50;;;;;;5070115;28;20284;-75
2022/10/07 12:11:15;;;;;;;11.65;8.43;;;29.40;94.10;;;;;;5070798;28;20178;-76
2022/10/07 12:13:51;;;;;;;8.07;7.28;;;29.10;93.60;;;;;;5052743;28;20216;-75
2022/10/07 12:16:23;;;;;;;10.38;7.50;;;28.50;93.60;;;;;;5071111;28;20594;-76
2022/10/07 12:19:15;;;;;;;10.45;9.52;;;27.40;94.20;;;;;;5070323;28;20213;-76
2022/10/07 12:22:02;;;;;;;9.32;8.40;;;28.20;95.00;;;;;;5070479;28;20185;-76
2022/10/07 12:24:36;;;;;;;7.72;7.00;;;29.20;92.90;;;;;;5070683;28;20185;-75
2022/10/07 12:27:17;;;;;;;8.65;7.78;;;29.40;92.30;;;;;;5070011;28;20889;-76
2022/10/07 12:30:01;;;;;;;10.77;9.88;;;28.40;93.30;;;;;;5052577;28;20209;-76
2022/10/07 12:32:43;;;;;;;11.30;9.25;;;27.50;94.60;;;;;;5070694;28;20749;-76
2022/10/07 12:35:28;;;;;;;9.93;8.60;;;28.20;94.30;;;;;;5070771;28;20733;-76
2022/10/07 12:38:15;;;;;;;8.27;7.47;;;29.30;92.70;;;;;;5070075;28;20268;-77
2022/10/07 12:40:58;;;;;;;9.60;7.55;;;29.00;92.20;;;;;;5070583;28;20174;-76
2022/10/07 12:43:35;;;;;;;8.88;7.97;;;28.20;93.20;;;;;;5070438;28;20182;-76
2022/10/07 12:46:08;;;;;;;8.90;8.10;;;27.60;94.80;;;;;;5070339;28;20181;-76
2022/10/07 12:48:40;;;;;;;9.10;8.30;;;28.50;93.60;;;;;;5053772;28;20224;-77
2022/10/07 12:51:22;;;;;;;11.07;7.75;;;28.90;92.60;;;;;;5074604;28;20310;-76
2022/10/07 12:53:50;;;;;;;12.10;9.13;;;27.20;94.50;;;;;;5074408;28;20193;-75
2022/10/07 12:56:27;;;;;;;9.23;8.52;;;25.60;97.00;;;;;;5057305;28;20174;-74
2022/10/07 13:02:30;;;;;;;8.65;7.93;;;25.10;98.90;;;;;;5074362;28;20189;-76
2022/10/07 13:05:32;;;;;;;8.40;7.57;;;26.40;97.30;;;;;;5057543;28;20589;-77
2022/10/07 13:08:29;;;;;;;7.72;6.90;;;27.50;95.90;;;;;;5056017;28;20177;-75